Time;durP1;ratioP1;P1;durP2;ratioP2;P2;SDS_P1;SDS_P2;PMS_P1;PMS_P2;Temp;Humidity;BMP_temperature;BMP_pressure;BME280_temperature;BME280_humidity;BME280_pressure;Samples;Min_cycle;Max_cycle;Signal;HPM_P1;HPM_P2
2022/02/06 00:07:27;;;;;;;2.78;0.82;;;8.80;68.40;;;;;;20829668;28;20361;-78
2022/02/06 00:17:29;;;;;;;2.38;1.08;;;8.80;68.60;;;;;;20795968;28;20112;-79
2022/02/06 00:27:42;;;;;;;1.13;0.60;;;8.80;68.80;;;;;;20812566;28;20392;-77
2022/02/06 00:48:03;;;;;;;1.30;0.57;;;8.80;69.30;;;;;;20829837;28;20045;-77
2022/02/06 00:58:05;;;;;;;1.60;0.50;;;8.80;69.40;;;;;;20842215;28;20069;-78
2022/02/06 01:08:05;;;;;;;3.65;1.27;;;8.80;69.70;;;;;;20825714;28;20132;-79
2022/02/06 01:18:17;;;;;;;1.45;0.55;;;8.80;69.90;;;;;;20809424;28;20091;-78
2022/02/06 01:28:26;;;;;;;2.17;0.50;;;8.80;70.00;;;;;;20827142;28;20113;-77
2022/02/06 01:38:33;;;;;;;0.57;0.40;;;8.80;70.20;;;;;;20825306;28;20041;-79
2022/02/06 02:09:29;;;;;;;0.77;0.32;;;8.80;70.60;;;;;;20836771;28;20029;-77
2022/02/06 02:50:20;;;;;;;1.25;0.55;;;8.80;71.00;;;;;;20821152;28;20121;-77
2022/02/06 03:00:32;;;;;;;1.60;0.67;;;8.80;71.10;;;;;;20815237;28;20053;-78
2022/02/06 03:10:36;;;;;;;0.43;0.20;;;8.80;71.20;;;;;;20818605;28;20025;-77
2022/02/06 03:20:38;;;;;;;0.50;0.35;;;8.80;71.30;;;;;;20849104;28;20037;-78
2022/02/06 03:30:39;;;;;;;2.42;0.50;;;8.80;71.40;;;;;;20814645;28;20032;-78
2022/02/06 03:40:45;;;;;;;0.40;0.30;;;8.80;71.50;;;;;;20829917;28;20045;-79
2022/02/06 03:50:51;;;;;;;0.68;0.20;;;8.80;71.60;;;;;;20798032;28;20041;-77
2022/02/06 04:00:57;;;;;;;0.57;0.30;;;8.80;71.70;;;;;;20798724;28;20107;-78
2022/02/06 04:10:59;;;;;;;0.30;0.20;;;8.80;71.90;;;;;;20813789;28;20033;-78
2022/02/06 04:21:01;;;;;;;0.32;0.30;;;8.80;72.00;;;;;;20812112;28;20037;-78
2022/02/06 04:31:02;;;;;;;0.65;0.20;;;8.80;72.10;;;;;;20812505;28;20026;-79
2022/02/06 04:51:54;;;;;;;1.25;0.28;;;8.80;72.30;;;;;;20828094;28;20037;-80
2022/02/06 05:22:36;;;;;;;0.38;0.25;;;8.80;72.70;;;;;;20823107;28;20037;-79
2022/02/06 05:32:57;;;;;;;0.85;0.30;;;8.80;72.70;;;;;;20842373;28;20030;-79
2022/02/06 05:42:58;;;;;;;0.65;0.30;;;8.90;72.80;;;;;;20872033;28;20387;-78
2022/02/06 05:52:58;;;;;;;0.98;0.30;;;8.90;72.70;;;;;;20905406;28;20072;-79
2022/02/06 06:03:00;;;;;;;2.08;0.30;;;9.10;72.60;;;;;;20921636;28;20048;-78
2022/02/06 06:13:02;;;;;;;0.98;0.30;;;9.20;72.30;;;;;;20921125;28;20537;-79
2022/02/06 06:23:02;;;;;;;0.60;0.30;;;9.30;71.90;;;;;;20919169;28;20094;-79
2022/02/06 06:33:07;;;;;;;0.20;0.20;;;9.30;71.90;;;;;;20917750;28;20124;-78
2022/02/06 06:43:08;;;;;;;1.45;0.20;;;9.20;72.50;;;;;;20903035;28;20044;-79
2022/02/06 06:53:11;;;;;;;0.63;0.30;;;9.20;72.10;;;;;;20884953;28;20045;-79
2022/02/06 07:03:13;;;;;;;0.30;0.28;;;9.10;72.30;;;;;;20917571;28;20037;-79
2022/02/06 07:13:14;;;;;;;1.08;0.40;;;9.10;72.50;;;;;;20866068;28;20049;-78
2022/02/06 07:23:16;;;;;;;0.17;0.17;;;9.10;72.70;;;;;;20803188;28;20044;-77
2022/02/06 07:33:20;;;;;;;0.30;0.17;;;9.00;72.80;;;;;;20749018;28;20526;-78
2022/02/06 07:43:20;;;;;;;0.63;0.32;;;9.00;72.90;;;;;;20748998;28;20049;-78
2022/02/06 07:53:21;;;;;;;0.85;0.38;;;9.00;73.10;;;;;;20748335;28;20507;-84
2022/02/06 08:03:26;;;;;;;0.30;0.28;;;9.00;73.20;;;;;;20884568;28;20033;-83
2022/02/06 08:13:41;;;;;;;0.32;0.20;;;9.00;73.30;;;;;;20915078;28;20032;-86
2022/02/06 08:23:41;;;;;;;0.30;0.10;;;9.00;73.40;;;;;;20900710;28;20052;-83
2022/02/06 08:33:43;;;;;;;0.10;0.10;;;8.90;73.40;;;;;;20915554;28;20368;-84
2022/02/06 08:43:44;;;;;;;0.63;0.30;;;8.90;73.60;;;;;;20865994;28;20389;-83
2022/02/06 08:53:44;;;;;;;0.10;0.10;;;8.90;73.70;;;;;;20815618;28;20045;-77
2022/02/06 09:03:48;;;;;;;1.42;0.52;;;8.90;73.70;;;;;;20831665;28;20048;-77
2022/02/06 09:13:51;;;;;;;0.40;0.20;;;8.90;73.80;;;;;;20839257;28;20022;-82
2022/02/06 09:23:53;;;;;;;1.55;0.40;;;9.00;74.00;;;;;;20850576;28;20041;-86
2022/02/06 09:43:55;;;;;;;0.85;0.32;;;9.40;74.90;;;;;;20829831;28;20048;-75
2022/02/06 09:53:58;;;;;;;1.60;0.50;;;9.50;75.10;;;;;;20821608;28;20472;-77
2022/02/06 10:04:06;;;;;;;2.95;0.75;;;9.60;75.10;;;;;;20860303;28;20037;-76
2022/02/06 10:14:06;;;;;;;0.43;0.30;;;9.70;75.00;;;;;;20919253;28;20471;-75
2022/02/06 10:24:15;;;;;;;2.22;0.77;;;9.80;74.90;;;;;;20919506;28;20075;-76
2022/02/06 10:34:27;;;;;;;4.28;0.73;;;9.90;75.00;;;;;;20888967;28;20057;-77
2022/02/06 10:44:28;;;;;;;1.35;0.50;;;9.90;75.10;;;;;;20800068;28;20044;-76
2022/02/06 10:54:29;;;;;;;1.85;0.88;;;9.90;75.00;;;;;;20814030;28;20073;-77
2022/02/06 11:04:32;;;;;;;1.15;0.50;;;10.00;75.10;;;;;;20835080;28;20435;-73
2022/02/06 11:14:35;;;;;;;1.92;0.55;;;10.00;75.20;;;;;;20812630;28;20111;-71
2022/02/06 11:24:37;;;;;;;3.55;1.10;;;10.00;75.30;;;;;;20828471;28;20514;-72
2022/02/06 11:34:42;;;;;;;3.50;0.70;;;10.00;75.50;;;;;;20828117;28;20472;-77
2022/02/06 11:45:07;;;;;;;2.65;0.30;;;10.00;75.60;;;;;;20846762;28;20034;-80
2022/02/06 11:55:14;;;;;;;2.10;0.70;;;10.10;75.50;;;;;;21291130;22;20043;-80
2022/02/06 12:05:28;;;;;;;1.30;0.52;;;10.10;75.50;;;;;;20934582;28;20036;-78
2022/02/06 12:15:32;;;;;;;1.83;0.40;;;10.10;75.60;;;;;;20977592;28;20041;-78
2022/02/06 12:25:35;;;;;;;2.85;1.13;;;10.20;75.50;;;;;;20959983;28;20051;-76
2022/02/06 12:46:03;;;;;;;1.15;0.55;;;10.10;75.20;;;;;;20976193;28;20029;-77
2022/02/06 12:56:04;;;;;;;1.40;0.57;;;10.20;75.20;;;;;;20890037;28;20146;-75
2022/02/06 13:06:11;;;;;;;1.45;0.60;;;10.10;75.00;;;;;;20939297;28;20425;-76
2022/02/06 13:16:37;;;;;;;1.15;0.60;;;10.20;74.90;;;;;;21040253;28;20066;-75
2022/02/06 13:36:47;;;;;;;0.73;0.60;;;10.20;74.70;;;;;;21038394;28;20034;-75
2022/02/06 13:46:48;;;;;;;1.45;0.80;;;10.20;74.60;;;;;;21054909;28;20088;-74
2022/02/06 13:56:55;;;;;;;1.10;0.35;;;10.20;74.50;;;;;;21055258;28;20032;-77
2022/02/06 14:07:21;;;;;;;1.58;0.35;;;10.20;74.40;;;;;;21072114;28;20473;-77
2022/02/06 14:17:46;;;;;;;7.28;3.33;;;10.20;74.40;;;;;;21070605;28;20398;-77
2022/02/06 14:27:48;;;;;;;1.75;0.93;;;10.30;74.30;;;;;;21054267;28;20032;-77
2022/02/06 14:37:55;;;;;;;2.20;0.90;;;10.30;74.30;;;;;;21044774;28;20031;-79
2022/02/06 14:47:57;;;;;;;3.22;0.70;;;10.30;74.30;;;;;;20893092;28;20039;-79
2022/02/06 14:57:58;;;;;;;2.88;1.58;;;10.30;74.50;;;;;;20990234;28;20036;-81
2022/02/06 15:08:02;;;;;;;2.65;1.02;;;10.10;74.70;;;;;;21048591;28;20050;-83
2022/02/06 15:18:11;;;;;;;0.82;0.60;;;10.00;74.70;;;;;;21065520;28;20040;-83
2022/02/06 15:28:12;;;;;;;1.05;0.55;;;9.90;74.70;;;;;;20994063;28;20028;-82
2022/02/06 15:38:15;;;;;;;2.05;0.90;;;9.80;75.00;;;;;;20981398;28;20085;-82
2022/02/06 15:48:16;;;;;;;2.88;0.40;;;9.80;74.20;;;;;;20947265;28;20055;-82
2022/02/06 15:58:19;;;;;;;2.05;0.60;;;9.80;74.00;;;;;;20980025;28;20390;-80
2022/02/06 16:08:23;;;;;;;1.88;0.65;;;9.80;74.00;;;;;;20946161;28;20532;-81
2022/02/06 16:18:27;;;;;;;0.85;0.40;;;9.70;73.90;;;;;;20966936;28;20036;-81
2022/02/06 16:28:30;;;;;;;1.25;0.50;;;9.70;73.90;;;;;;20992527;28;20071;-81
2022/02/06 16:38:31;;;;;;;5.93;0.63;;;9.60;73.80;;;;;;20962369;28;20039;-83
2022/02/06 16:48:31;;;;;;;0.75;0.40;;;9.60;73.80;;;;;;20966038;28;20032;-82
2022/02/06 16:58:34;;;;;;;4.88;0.80;;;9.60;73.80;;;;;;20987420;28;20047;-74
2022/02/06 17:08:39;;;;;;;2.47;0.57;;;9.70;73.90;;;;;;20991094;28;20390;-78
2022/02/06 17:18:40;;;;;;;2.33;0.40;;;9.70;73.90;;;;;;21000915;28;20068;-74
2022/02/06 17:28:40;;;;;;;0.93;0.60;;;9.60;73.90;;;;;;21040326;28;20074;-75
2022/02/06 17:38:41;;;;;;;2.10;0.63;;;9.60;74.00;;;;;;21058294;28;20032;-75
2022/02/06 17:48:42;;;;;;;2.20;0.63;;;9.60;74.10;;;;;;20995926;28;20044;-74
2022/02/06 17:58:44;;;;;;;1.80;0.40;;;9.50;74.10;;;;;;20954867;28;20047;-75
2022/02/06 18:08:45;;;;;;;1.55;0.57;;;9.50;74.20;;;;;;20955266;28;20047;-74
2022/02/06 18:18:45;;;;;;;1.35;0.50;;;9.50;74.20;;;;;;20969676;28;20356;-74
2022/02/06 18:28:46;;;;;;;1.10;0.50;;;9.50;74.20;;;;;;20952518;28;20536;-77
2022/02/06 18:38:47;;;;;;;1.52;0.45;;;9.50;74.30;;;;;;20967352;28;20072;-81
2022/02/06 18:48:50;;;;;;;0.70;0.47;;;9.50;74.30;;;;;;20958228;28;20043;-83
2022/02/06 18:58:51;;;;;;;1.38;1.17;;;9.40;74.20;;;;;;20991510;28;20052;-84
2022/02/06 19:08:53;;;;;;;1.65;0.52;;;9.40;74.00;;;;;;20940189;28;20401;-81
2022/02/06 19:18:54;;;;;;;1.25;0.40;;;9.40;73.90;;;;;;21011600;28;20134;-82
2022/02/06 19:28:56;;;;;;;3.58;0.38;;;9.40;73.90;;;;;;20986308;28;20059;-84
2022/02/06 19:39:10;;;;;;;1.38;0.40;;;9.40;73.80;;;;;;20927197;28;20237;-83
2022/02/06 19:49:13;;;;;;;0.60;0.50;;;9.40;73.80;;;;;;20982391;28;20079;-83
2022/02/06 19:59:14;;;;;;;1.08;0.30;;;9.40;73.70;;;;;;20906618;28;20124;-83
2022/02/06 20:09:17;;;;;;;0.17;0.17;;;9.30;73.70;;;;;;20914713;28;20064;-83
2022/02/06 20:19:18;;;;;;;1.50;0.40;;;9.30;73.70;;;;;;20884907;28;20044;-82
2022/02/06 20:29:18;;;;;;;0.50;0.22;;;9.30;73.70;;;;;;20909774;28;20044;-83
2022/02/06 20:39:19;;;;;;;0.95;0.50;;;9.30;73.70;;;;;;20940109;28;20543;-82
2022/02/06 20:49:21;;;;;;;0.30;0.30;;;9.30;73.70;;;;;;20940213;28;20429;-84
2022/02/06 20:59:22;;;;;;;0.73;0.30;;;9.30;73.70;;;;;;20924004;28;20065;-83
2022/02/06 21:09:23;;;;;;;1.77;0.55;;;9.30;73.70;;;;;;20933149;28;20052;-84
2022/02/06 21:19:24;;;;;;;0.82;0.30;;;9.30;73.60;;;;;;20993784;28;20032;-83
2022/02/06 21:29:26;;;;;;;0.88;0.40;;;9.30;73.60;;;;;;20961774;28;20044;-85
2022/02/06 21:39:28;;;;;;;1.13;0.40;;;9.30;73.40;;;;;;20895241;28;20118;-81
2022/02/06 21:49:29;;;;;;;1.33;0.65;;;9.20;73.20;;;;;;20880443;28;20037;-86
2022/02/06 21:59:30;;;;;;;0.80;0.40;;;9.20;73.10;;;;;;20894862;28;20411;-85
2022/02/06 22:09:52;;;;;;;0.82;0.40;;;9.20;72.90;;;;;;20895237;28;20037;-86
2022/02/06 22:30:12;;;;;;;1.45;0.32;;;9.20;72.60;;;;;;20896831;28;20044;-84
2022/02/06 22:40:14;;;;;;;0.38;0.20;;;9.10;72.50;;;;;;20875477;28;20041;-83
2022/02/06 22:50:15;;;;;;;1.65;0.55;;;9.20;72.40;;;;;;20893204;28;20068;-85
2022/02/06 23:00:16;;;;;;;2.20;0.20;;;9.10;72.40;;;;;;20891489;28;20033;-83
2022/02/06 23:10:16;;;;;;;2.72;0.40;;;9.10;72.30;;;;;;20885789;28;20116;-82
2022/02/06 23:20:17;;;;;;;1.37;0.40;;;9.20;72.20;;;;;;20886112;28;20094;-83
2022/02/06 23:30:18;;;;;;;0.47;0.20;;;9.10;71.90;;;;;;20903196;28;20819;-83
2022/02/06 23:40:19;;;;;;;0.40;0.22;;;9.00;71.70;;;;;;20884493;28;20386;-80
2022/02/06 23:50:20;;;;;;;1.85;0.20;;;9.00;71.50;;;;;;20868108;28;20033;-83
